createdAt,value
2023-08-07T00:02:11.857Z,1.20
2023-08-07T00:04:58.894Z,0.98
2023-08-07T00:07:45.925Z,0.98
2023-08-07T00:10:33.054Z,0.80
2023-08-07T00:13:19.971Z,0.75
2023-08-07T00:16:06.919Z,0.57
2023-08-07T00:18:57.126Z,1.13
2023-08-07T00:21:44.209Z,0.70
2023-08-07T00:24:31.897Z,0.50
2023-08-07T00:27:18.777Z,1.10
2023-08-07T00:30:06.156Z,0.55
2023-08-07T00:32:53.084Z,1.13
2023-08-07T00:35:39.997Z,0.45
2023-08-07T00:38:26.849Z,1.00
2023-08-07T00:41:13.732Z,0.70
2023-08-07T00:44:01.111Z,0.40
2023-08-07T00:46:48.245Z,0.40
2023-08-07T00:49:35.367Z,0.98
2023-08-07T00:52:22.194Z,0.50
2023-08-07T00:55:09.321Z,0.50
2023-08-07T00:57:56.236Z,0.32
2023-08-07T01:00:43.944Z,0.35
2023-08-07T01:03:31.033Z,0.75
2023-08-07T01:06:18.212Z,0.60
2023-08-07T01:09:05.302Z,0.63
2023-08-07T01:12:15.718Z,0.40
2023-08-07T01:15:17.636Z,1.63
2023-08-07T01:18:06.096Z,0.50
2023-08-07T01:20:53.156Z,0.40
2023-08-07T01:23:40.049Z,0.30
2023-08-07T01:26:27.034Z,0.32
2023-08-07T01:29:20.004Z,0.60
2023-08-07T01:32:09.301Z,0.38
2023-08-07T01:34:56.996Z,0.40
2023-08-07T01:37:44.410Z,0.40
2023-08-07T01:40:31.729Z,0.55
2023-08-07T01:43:20.156Z,0.40
2023-08-07T01:46:07.891Z,0.30
2023-08-07T01:48:54.854Z,0.40
2023-08-07T01:51:41.709Z,0.38
2023-08-07T01:54:28.601Z,0.30
2023-08-07T01:57:15.490Z,0.32
2023-08-07T02:00:02.361Z,0.30
2023-08-07T02:02:49.660Z,0.38
2023-08-07T02:05:36.624Z,0.30
2023-08-07T02:08:23.592Z,0.30
2023-08-07T02:11:10.426Z,0.55
2023-08-07T02:13:57.240Z,0.22
2023-08-07T02:16:44.121Z,0.60
2023-08-07T02:19:31.649Z,1.65
2023-08-07T02:22:18.585Z,0.30
2023-08-07T02:25:05.840Z,0.30
2023-08-07T02:27:52.657Z,0.52
2023-08-07T02:30:39.520Z,0.98
2023-08-07T02:33:26.330Z,0.40
2023-08-07T02:36:13.421Z,0.73
2023-08-07T02:39:00.268Z,0.38
2023-08-07T02:41:47.143Z,0.73
2023-08-07T02:44:34.002Z,0.40
2023-08-07T02:47:20.887Z,0.28
2023-08-07T02:50:08.137Z,0.47
2023-08-07T02:52:55.239Z,0.22
2023-08-07T02:55:44.892Z,0.55
2023-08-07T02:58:31.720Z,0.20
2023-08-07T03:01:18.950Z,0.85
2023-08-07T03:04:05.871Z,0.30
2023-08-07T03:06:52.930Z,0.40
2023-08-07T03:09:39.952Z,0.68
2023-08-07T03:12:26.870Z,0.73
2023-08-07T03:15:13.741Z,0.30
2023-08-07T03:18:00.687Z,0.50
2023-08-07T03:20:47.625Z,0.40
2023-08-07T03:23:34.504Z,0.45
2023-08-07T03:26:21.373Z,0.43
2023-08-07T03:29:08.228Z,0.35
2023-08-07T03:31:55.111Z,0.30
2023-08-07T03:34:41.977Z,0.52
2023-08-07T03:37:28.818Z,0.40
2023-08-07T03:40:15.690Z,0.40
2023-08-07T03:43:02.662Z,0.40
2023-08-07T03:45:55.602Z,0.70
2023-08-07T03:48:42.546Z,0.30
2023-08-07T03:51:30.956Z,1.05
2023-08-07T03:54:17.850Z,0.40
2023-08-07T03:57:04.940Z,0.30
2023-08-07T03:59:51.793Z,0.40
2023-08-07T04:02:38.678Z,0.30
2023-08-07T04:05:25.660Z,0.50
2023-08-07T04:08:12.511Z,1.15
2023-08-07T04:11:06.507Z,0.73
2023-08-07T04:13:53.414Z,0.40
2023-08-07T04:16:40.803Z,0.80
2023-08-07T04:19:27.949Z,0.73
2023-08-07T04:22:14.832Z,0.40
2023-08-07T04:25:02.194Z,0.75
2023-08-07T04:27:49.058Z,0.70
2023-08-07T04:30:36.023Z,0.70
2023-08-07T04:33:22.990Z,1.15
2023-08-07T04:36:09.837Z,0.50
2023-08-07T04:38:56.888Z,1.30
2023-08-07T04:41:43.821Z,1.63
2023-08-07T04:44:30.805Z,0.85
2023-08-07T04:47:17.708Z,0.57
2023-08-07T04:50:04.843Z,0.85
2023-08-07T04:52:51.792Z,0.50
2023-08-07T04:55:39.792Z,0.95
2023-08-07T04:58:26.676Z,0.82
2023-08-07T05:01:13.619Z,0.63
2023-08-07T05:04:00.611Z,0.60
2023-08-07T05:06:47.511Z,1.67
2023-08-07T05:09:34.353Z,2.17
2023-08-07T05:12:21.353Z,0.45
2023-08-07T05:15:08.561Z,1.05
2023-08-07T05:17:55.473Z,0.73
2023-08-07T05:20:42.657Z,0.95
2023-08-07T05:23:29.489Z,0.82
2023-08-07T05:26:17.765Z,0.65
2023-08-07T05:29:05.093Z,0.93
2023-08-07T05:31:51.974Z,0.95
2023-08-07T05:34:39.115Z,0.65
2023-08-07T05:37:26.045Z,0.93
2023-08-07T05:40:13.232Z,0.82
2023-08-07T05:43:00.129Z,1.20
2023-08-07T05:45:47.395Z,1.35
2023-08-07T05:48:34.296Z,0.40
2023-08-07T05:51:21.170Z,0.63
2023-08-07T05:54:08.364Z,1.08
2023-08-07T05:56:55.194Z,2.35
2023-08-07T05:59:42.242Z,1.30
2023-08-07T06:02:29.104Z,1.00
2023-08-07T06:05:17.358Z,0.60
2023-08-07T06:08:04.290Z,1.40
2023-08-07T06:10:51.115Z,1.00
2023-08-07T06:13:38.024Z,1.80
2023-08-07T06:16:25.067Z,1.25
2023-08-07T06:19:25.315Z,1.50
2023-08-07T06:22:18.303Z,1.70
2023-08-07T06:25:06.777Z,0.98
2023-08-07T06:27:53.662Z,0.95
2023-08-07T06:30:40.510Z,0.65
2023-08-07T06:33:27.464Z,1.20
2023-08-07T06:36:14.280Z,1.30
2023-08-07T06:39:01.185Z,1.50
2023-08-07T06:41:48.155Z,0.60
2023-08-07T06:44:35.232Z,1.08
2023-08-07T06:47:22.617Z,1.83
2023-08-07T06:50:10.015Z,1.88
2023-08-07T06:52:56.978Z,1.50
2023-08-07T06:55:44.265Z,1.73
2023-08-07T06:58:31.118Z,1.63
2023-08-07T07:01:18.454Z,2.00
2023-08-07T07:04:05.372Z,1.75
2023-08-07T07:06:52.312Z,2.08
2023-08-07T07:09:39.473Z,2.00
2023-08-07T07:12:26.402Z,1.17
2023-08-07T07:15:13.403Z,1.85
2023-08-07T07:18:00.881Z,2.08
2023-08-07T07:20:47.807Z,2.25
2023-08-07T07:23:34.769Z,2.47
2023-08-07T07:26:21.638Z,2.05
2023-08-07T07:29:08.493Z,2.65
2023-08-07T07:31:56.425Z,1.67
2023-08-07T07:34:43.694Z,2.78
2023-08-07T07:37:32.182Z,2.67
2023-08-07T07:40:19.004Z,1.40
2023-08-07T07:43:05.947Z,1.60
2023-08-07T07:45:52.837Z,1.40
2023-08-07T07:48:39.720Z,1.80
2023-08-07T07:51:27.578Z,1.58
2023-08-07T07:54:15.593Z,2.38
2023-08-07T07:57:02.642Z,2.40
2023-08-07T07:59:50.026Z,2.50
2023-08-07T08:02:44.225Z,2.08
2023-08-07T08:05:31.351Z,1.10
2023-08-07T08:08:18.236Z,1.65
2023-08-07T08:11:05.208Z,1.52
2023-08-07T08:13:52.546Z,1.58
2023-08-07T08:16:39.468Z,1.40
2023-08-07T08:19:30.876Z,1.65
2023-08-07T08:22:20.226Z,2.67
2023-08-07T08:25:07.849Z,1.25
2023-08-07T08:27:54.773Z,1.17
2023-08-07T08:30:42.882Z,1.92
2023-08-07T08:33:29.712Z,1.40
2023-08-07T08:36:16.620Z,1.27
2023-08-07T08:39:05.610Z,1.38
2023-08-07T08:41:53.180Z,2.15
2023-08-07T08:44:41.215Z,1.33
2023-08-07T08:47:28.429Z,2.17
2023-08-07T08:50:15.972Z,1.95
2023-08-07T08:53:04.067Z,2.35
2023-08-07T08:55:51.619Z,1.70
2023-08-07T08:58:39.746Z,1.35
2023-08-07T09:01:27.019Z,2.50
2023-08-07T09:04:14.683Z,2.05
2023-08-07T09:07:04.786Z,1.50
2023-08-07T09:09:52.052Z,2.28
2023-08-07T09:12:41.856Z,2.05
2023-08-07T09:15:30.959Z,2.47
2023-08-07T09:18:18.298Z,2.83
2023-08-07T09:21:05.190Z,1.60
2023-08-07T09:23:52.605Z,1.67
2023-08-07T09:26:40.080Z,2.92
2023-08-07T09:29:27.985Z,1.73
2023-08-07T09:32:14.953Z,2.92
2023-08-07T09:35:05.389Z,2.38
2023-08-07T09:37:52.552Z,2.33
2023-08-07T09:40:39.404Z,2.33
2023-08-07T09:43:26.297Z,2.63
2023-08-07T09:46:13.199Z,3.83
2023-08-07T09:49:00.426Z,2.33
2023-08-07T09:51:48.833Z,3.58
2023-08-07T09:54:36.570Z,3.35
2023-08-07T09:57:23.509Z,3.35
2023-08-07T10:00:12.631Z,3.63
2023-08-07T10:05:46.716Z,1.70
2023-08-07T10:08:36.289Z,4.00
2023-08-07T10:11:24.277Z,3.80
2023-08-07T10:14:11.788Z,3.25
2023-08-07T10:16:58.913Z,3.78
2023-08-07T10:19:45.977Z,3.35
2023-08-07T10:22:33.454Z,3.53
2023-08-07T10:25:22.478Z,5.70
2023-08-07T10:30:58.143Z,2.72
2023-08-07T10:33:45.362Z,2.75
2023-08-07T10:36:36.421Z,1.65
2023-08-07T10:39:23.745Z,2.95
2023-08-07T10:42:12.928Z,4.80
2023-08-07T10:45:02.356Z,2.58
2023-08-07T10:48:07.546Z,2.85
2023-08-07T10:51:04.976Z,3.35
2023-08-07T10:53:53.525Z,1.45
2023-08-07T10:56:45.030Z,1.92
2023-08-07T10:59:32.008Z,1.55
2023-08-07T11:02:26.990Z,1.98
2023-08-07T11:05:14.186Z,1.58
2023-08-07T11:08:01.178Z,2.85
2023-08-07T11:10:48.022Z,1.73
2023-08-07T11:13:35.017Z,1.42
2023-08-07T11:16:22.600Z,1.95
2023-08-07T11:19:09.675Z,2.95
2023-08-07T11:21:58.244Z,2.47
2023-08-07T11:24:46.938Z,1.67
2023-08-07T11:27:33.814Z,1.90
2023-08-07T11:30:20.768Z,1.60
2023-08-07T11:33:07.689Z,2.00
2023-08-07T11:35:55.571Z,1.63
2023-08-07T11:38:44.475Z,1.65
2023-08-07T11:41:33.265Z,1.45
2023-08-07T11:44:20.472Z,2.13
2023-08-07T11:47:07.446Z,1.85
2023-08-07T11:49:54.498Z,2.45
2023-08-07T11:52:41.413Z,2.50
2023-08-07T11:55:33.290Z,2.45
2023-08-07T11:58:20.647Z,2.40
2023-08-07T12:01:11.232Z,1.63
2023-08-07T12:04:10.072Z,2.28
2023-08-07T12:09:45.325Z,2.20
2023-08-07T12:12:35.351Z,2.28
2023-08-07T12:15:22.346Z,2.10
2023-08-07T12:18:09.353Z,2.28
2023-08-07T12:21:07.734Z,3.72
2023-08-07T12:23:58.262Z,2.88
2023-08-07T12:26:45.166Z,3.35
2023-08-07T12:29:32.083Z,3.13
2023-08-07T12:32:18.954Z,1.85
2023-08-07T12:37:59.693Z,3.80
2023-08-07T12:40:46.575Z,3.47
2023-08-07T12:43:33.437Z,4.50
2023-08-07T12:49:10.501Z,3.58
2023-08-07T12:51:59.275Z,3.50
2023-08-07T12:54:46.087Z,4.72
2023-08-07T12:57:33.135Z,2.97
2023-08-07T13:00:20.216Z,3.33
2023-08-07T13:03:07.114Z,3.40
2023-08-07T13:05:53.997Z,3.25
2023-08-07T13:08:41.897Z,2.72
2023-08-07T13:11:28.948Z,2.83
2023-08-07T13:14:15.865Z,3.58
2023-08-07T13:17:02.755Z,3.05
2023-08-07T13:19:49.630Z,2.22
2023-08-07T13:22:44.464Z,2.83
2023-08-07T13:25:31.329Z,2.03
2023-08-07T13:28:19.283Z,2.50
2023-08-07T13:31:06.377Z,3.63
2023-08-07T13:33:53.341Z,3.08
2023-08-07T13:36:40.623Z,2.42
2023-08-07T13:39:27.495Z,3.90
2023-08-07T13:42:14.434Z,2.55
2023-08-07T13:45:01.324Z,2.28
2023-08-07T13:47:48.247Z,3.55
2023-08-07T13:50:35.290Z,2.67
2023-08-07T13:53:24.973Z,3.45
2023-08-07T13:56:13.799Z,2.30
2023-08-07T13:59:01.243Z,3.08
2023-08-07T14:01:48.137Z,2.47
2023-08-07T14:04:34.976Z,2.47
2023-08-07T14:07:21.823Z,3.20
2023-08-07T14:10:09.123Z,1.63
2023-08-07T14:12:57.171Z,3.83
2023-08-07T14:15:44.102Z,2.80
2023-08-07T14:18:31.071Z,4.35
2023-08-07T14:21:18.009Z,3.67
2023-08-07T14:24:04.968Z,3.45
2023-08-07T14:26:51.818Z,1.58
2023-08-07T14:32:30.417Z,2.22
2023-08-07T14:35:17.244Z,2.80
2023-08-07T14:38:04.128Z,2.88
2023-08-07T14:40:51.084Z,3.40
2023-08-07T14:43:37.918Z,1.88
2023-08-07T14:46:25.217Z,1.92
2023-08-07T14:49:12.363Z,1.88
2023-08-07T14:51:59.461Z,1.40
2023-08-07T14:54:46.589Z,2.35
2023-08-07T14:57:33.471Z,1.42
2023-08-07T15:00:21.283Z,1.83
2023-08-07T15:03:08.256Z,2.22
2023-08-07T15:05:55.144Z,2.08
2023-08-07T15:08:42.119Z,2.30
2023-08-07T15:11:29.242Z,1.40
2023-08-07T15:14:16.289Z,1.58
2023-08-07T15:17:03.354Z,2.15
2023-08-07T15:19:50.241Z,2.10
2023-08-07T15:22:37.139Z,1.25
2023-08-07T15:25:23.982Z,1.00
2023-08-07T15:28:10.943Z,1.67
2023-08-07T15:30:57.838Z,2.88
2023-08-07T15:33:48.504Z,2.50
2023-08-07T15:36:35.387Z,2.55
2023-08-07T15:39:22.222Z,2.25
2023-08-07T15:42:09.092Z,2.20
2023-08-07T15:44:55.939Z,3.28
2023-08-07T15:47:42.898Z,1.35
2023-08-07T15:50:31.454Z,2.08
2023-08-07T15:53:18.358Z,2.45
2023-08-07T15:56:05.261Z,2.33
2023-08-07T15:58:52.098Z,3.30
2023-08-07T16:01:39.023Z,3.30
2023-08-07T16:04:26.051Z,3.92
2023-08-07T16:07:13.017Z,3.80
2023-08-07T16:09:59.941Z,4.10
2023-08-07T16:12:47.038Z,4.78
2023-08-07T16:15:34.949Z,2.78
2023-08-07T16:18:21.869Z,4.25
2023-08-07T16:21:08.813Z,3.83
2023-08-07T16:23:55.693Z,3.60
2023-08-07T16:26:44.920Z,4.53
2023-08-07T16:29:32.187Z,3.65
2023-08-07T16:32:19.079Z,3.38
2023-08-07T16:35:06.965Z,3.72
2023-08-07T16:37:53.997Z,5.82
2023-08-07T16:40:42.451Z,4.00
2023-08-07T16:43:29.405Z,3.78
2023-08-07T16:46:18.034Z,4.03
2023-08-07T16:49:04.987Z,4.95
2023-08-07T16:51:55.187Z,3.47
2023-08-07T16:54:42.275Z,4.85
2023-08-07T16:57:29.128Z,4.43
2023-08-07T17:00:16.448Z,4.47
2023-08-07T17:03:03.836Z,3.78
2023-08-07T17:05:51.160Z,4.28
2023-08-07T17:08:38.451Z,3.60
2023-08-07T17:11:28.179Z,4.47
2023-08-07T17:14:17.220Z,4.38
2023-08-07T17:17:04.513Z,3.95
2023-08-07T17:19:54.749Z,3.28
2023-08-07T17:22:44.935Z,5.22
2023-08-07T17:25:32.857Z,3.50
2023-08-07T17:28:19.954Z,4.20
2023-08-07T17:31:07.329Z,3.72
2023-08-07T17:33:54.352Z,3.03
2023-08-07T17:36:41.441Z,3.72
2023-08-07T17:39:28.419Z,4.20
2023-08-07T17:42:15.366Z,6.22
2023-08-07T17:45:03.346Z,3.63
2023-08-07T17:47:50.580Z,3.95
2023-08-07T17:50:37.653Z,3.70
2023-08-07T17:53:24.554Z,4.20
2023-08-07T17:56:11.565Z,4.10
2023-08-07T17:58:58.484Z,4.22
2023-08-07T18:01:45.415Z,4.20
2023-08-07T18:04:32.416Z,4.15
2023-08-07T18:07:19.506Z,3.78
2023-08-07T18:10:08.739Z,4.57
2023-08-07T18:12:56.085Z,3.58
2023-08-07T18:15:42.919Z,4.32
2023-08-07T18:18:29.770Z,4.72
2023-08-07T18:21:16.673Z,4.22
2023-08-07T18:24:04.319Z,4.05
2023-08-07T18:26:51.203Z,4.97
2023-08-07T18:29:38.040Z,3.50
2023-08-07T18:32:25.050Z,4.80
2023-08-07T18:35:12.047Z,3.33
2023-08-07T18:37:58.939Z,4.13
2023-08-07T18:40:45.866Z,3.83
2023-08-07T18:43:32.945Z,4.07
2023-08-07T18:46:19.822Z,2.78
2023-08-07T18:49:06.697Z,4.25
2023-08-07T18:51:53.553Z,4.32
2023-08-07T18:54:41.056Z,4.13
2023-08-07T18:57:28.030Z,5.38
2023-08-07T19:00:15.872Z,4.00
2023-08-07T19:03:02.855Z,3.75
2023-08-07T19:05:49.904Z,4.60
2023-08-07T19:08:38.348Z,3.20
2023-08-07T19:14:13.890Z,5.57
2023-08-07T19:17:01.597Z,4.95
2023-08-07T19:22:36.635Z,3.85
2023-08-07T19:25:23.529Z,4.32
2023-08-07T19:28:10.538Z,3.67
2023-08-07T19:31:05.534Z,4.68
2023-08-07T19:33:53.397Z,3.40
2023-08-07T19:36:41.616Z,4.38
2023-08-07T19:39:28.663Z,3.30
2023-08-07T19:42:15.639Z,4.65
2023-08-07T19:45:02.851Z,4.05
2023-08-07T19:47:49.840Z,3.60
2023-08-07T19:50:37.848Z,4.45
2023-08-07T19:53:24.735Z,4.25
2023-08-07T19:56:11.609Z,4.00
2023-08-07T19:58:58.515Z,4.03
2023-08-07T20:01:45.430Z,4.47
2023-08-07T20:04:32.814Z,4.25
2023-08-07T20:07:25.543Z,3.75
2023-08-07T20:10:13.887Z,5.68
2023-08-07T20:13:00.804Z,4.07
2023-08-07T20:15:47.793Z,3.22
2023-08-07T20:18:34.655Z,3.83
2023-08-07T20:21:21.510Z,3.65
2023-08-07T20:24:08.334Z,3.35
2023-08-07T20:26:59.135Z,3.70
2023-08-07T20:29:46.052Z,4.50
2023-08-07T20:32:32.956Z,4.28
2023-08-07T20:35:20.266Z,4.88
2023-08-07T20:38:07.132Z,4.35
2023-08-07T20:40:54.002Z,3.03
2023-08-07T20:43:40.865Z,4.40
2023-08-07T20:46:27.748Z,3.53
2023-08-07T20:49:15.109Z,3.63
2023-08-07T20:52:02.417Z,3.53
2023-08-07T20:54:49.351Z,4.55
2023-08-07T20:57:36.311Z,3.88
2023-08-07T21:00:23.164Z,4.97
2023-08-07T21:03:10.042Z,3.88
2023-08-07T21:05:57.189Z,4.90
2023-08-07T21:08:44.091Z,4.18
2023-08-07T21:11:30.977Z,3.97
2023-08-07T21:14:17.869Z,3.65
2023-08-07T21:17:05.902Z,4.45
2023-08-07T21:19:52.825Z,4.35
2023-08-07T21:22:39.808Z,3.60
2023-08-07T21:25:26.786Z,4.63
2023-08-07T21:28:13.644Z,4.05
2023-08-07T21:31:00.624Z,3.88
2023-08-07T21:33:47.514Z,3.60
2023-08-07T21:36:34.353Z,4.68
2023-08-07T21:39:21.242Z,5.55
2023-08-07T21:42:08.462Z,4.68
2023-08-07T21:44:55.309Z,3.78
2023-08-07T21:47:44.444Z,3.90
2023-08-07T21:50:32.123Z,4.80
2023-08-07T21:53:19.041Z,4.25
2023-08-07T21:56:05.945Z,3.88
2023-08-07T21:58:52.809Z,4.82
2023-08-07T22:01:39.838Z,4.13
2023-08-07T22:04:26.734Z,5.43
2023-08-07T22:07:13.704Z,5.43
2023-08-07T22:10:01.043Z,3.88
2023-08-07T22:12:47.988Z,3.97
2023-08-07T22:15:34.927Z,5.13
2023-08-07T22:18:21.913Z,3.92
2023-08-07T22:21:08.789Z,3.97
2023-08-07T22:23:55.818Z,4.10
2023-08-07T22:26:42.677Z,4.45
2023-08-07T22:29:29.661Z,4.25
2023-08-07T22:32:16.632Z,5.00
2023-08-07T22:35:04.085Z,4.80
2023-08-07T22:37:51.072Z,5.18
2023-08-07T22:40:38.005Z,4.10
2023-08-07T22:43:25.019Z,4.80
2023-08-07T22:46:11.981Z,4.70
2023-08-07T22:48:58.884Z,3.38
2023-08-07T22:51:46.012Z,5.75
2023-08-07T22:54:32.942Z,4.55
2023-08-07T22:57:19.828Z,3.28
2023-08-07T23:00:08.306Z,3.63
2023-08-07T23:02:56.572Z,4.00
2023-08-07T23:05:43.569Z,4.63
2023-08-07T23:08:30.435Z,6.55
2023-08-07T23:11:17.258Z,3.72
2023-08-07T23:14:04.455Z,4.55
2023-08-07T23:16:51.453Z,3.08
2023-08-07T23:19:38.316Z,4.47
2023-08-07T23:22:25.181Z,4.10
2023-08-07T23:25:12.073Z,4.32
2023-08-07T23:27:58.906Z,5.25
2023-08-07T23:30:45.879Z,4.28
2023-08-07T23:33:32.740Z,4.63
2023-08-07T23:36:19.620Z,4.95
2023-08-07T23:39:06.453Z,5.40
2023-08-07T23:41:53.687Z,6.10
2023-08-07T23:44:40.610Z,4.38
2023-08-07T23:47:27.520Z,5.22
2023-08-07T23:50:14.552Z,5.30
2023-08-07T23:53:01.532Z,4.70
2023-08-07T23:55:48.432Z,5.53
2023-08-07T23:58:35.284Z,5.25
